• Join FlightAware (Why Join?)
  • Login
  • US Flag 
04:51AM EDT


 

Airport Tracker/Info


-or-


 

Live Flight TrackerFlight Track Log ✈ AWI3551 ✈ 01-Jul-2013 ✈ KBUF - KPHL

Flight Track Log - Related Links

Times and Time Zones

All times are in EDT time to prevent confusion due to time zone crossing. See the AWI3551 flight status page for this flight to view local times or setup timezone preferences in your user account.

Time Position Orientation Groundspeed Altitude Reporting Facility
EDT Latitude Longitude Course Direction KTS MPH feet Rate Location/Type
05:42AM 42.9500 -78.7000 26° Northeast 154 177 1,600  Level Buffalo TRACON
05:43AM 43.0000 -78.6667 26° Northeast 181 208 3,600 1,560 Climbing Buffalo TRACON
05:45AM 42.8772 -78.6311 168° South 249 287 6,300 1,620 Climbing Cleveland Center
05:46AM 42.8042 -78.6306 180° South 275 316 8,300 1,920 Climbing Cleveland Center
05:47AM 42.7231 -78.6275 178° South 275 316 10,200 1,800 Climbing Cleveland Center
05:48AM 42.6458 -78.6269 180° South 275 316 12,000 1,920 Climbing Cleveland Center
05:49AM 42.5625 -78.6267 180° South 280 322 14,100 1,980 Climbing Cleveland Center
05:50AM 42.4811 -78.6236 178° South 292 336 16,000 1,800 Climbing Cleveland Center
05:51AM 42.4050 -78.5669 151° Southeast 292 336 17,800 1,500 Climbing Cleveland Center
05:52AM 42.3311 -78.5103 150° Southeast 292 336 19,000 1,200 Climbing Cleveland Center
05:53AM 42.2508 -78.4542 153° Southeast 310 357 20,200 960 Climbing Cleveland Center
05:54AM 42.1664 -78.3925 152° Southeast 322 371 21,000 360 Climbing Cleveland Center
05:55AM 42.0819 -78.3339 153° Southeast 334 384 21,000  Level Cleveland Center
05:56AM 41.9992 -78.2697 150° Southeast 334 384 21,000  Level Cleveland Center
05:57AM 41.9167 -78.2111 152° Southeast 334 384 21,000  Level Cleveland Center
05:58AM 41.8322 -78.1503 152° Southeast 334 384 21,000  Level Cleveland Center
05:59AM 41.7472 -78.0867 151° Southeast 334 384 21,000  Level Cleveland Center
06:00AM 41.6606 -78.0317 155° Southeast 339 390 21,000  Level Cleveland Center
06:01AM 41.5369 -77.9631 157° South 338 389 21,000  Level New York Center
06:02AM 41.4481 -77.9150 158° South 343 395 21,000  Level New York Center
06:03AM 41.3619 -77.8558 153° Southeast 343 395 21,000  Level New York Center
06:04AM 41.2783 -77.7919 150° Southeast 348 400 21,000  Level New York Center
06:05AM 41.1925 -77.7278 151° Southeast 353 406 21,000 -540 Level New York Center
06:06AM 41.1206 -77.6378 137° Southeast 353 406 20,000 -1,020 Descending New York Center
06:07AM 41.0492 -77.5397 134° Southeast 363 418 19,000 -540 Descending New York Center
06:08AM 40.9775 -77.4419 134° Southeast 368 423 19,000  Level New York Center
06:09AM 40.9061 -77.3442 134° Southeast 368 423 19,000  Level New York Center
06:10AM 40.8342 -77.2469 134° Southeast 368 423 19,000  Level New York Center
06:11AM 40.7625 -77.1494 134° Southeast 368 423 19,000  Level New York Center
06:12AM 40.6903 -77.0553 135° Southeast 368 423 19,000  Level New York Center
06:13AM 40.6222 -76.9614 134° Southeast 361 415 19,000 -600 Level New York Center
06:14AM 40.5600 -76.8794 135° Southeast 356 410 17,900 -1,200 Descending New York Center
06:15AM 40.4897 -76.7858 135° Southeast 356 410 16,700 -1,260 Descending New York Center
06:16AM 40.4156 -76.6839 134° Southeast 356 410 15,400 -1,320 Descending New York Center
06:17AM 40.3581 -76.5808 126° Southeast 350 403 14,200 -1,200 Descending New York Center
06:18AM 40.3256 -76.4775 112° Southeast 344 396 13,100 -1,200 Descending New York Center
06:19AM 40.2894 -76.3656 113° Southeast 339 390 11,900 -1,200 Descending New York Center
06:20AM 40.2508 -76.2564 115° Southeast 339 390 10,800 -960 Descending New York Center
06:21AM 40.2078 -76.1497 118° Southeast 327 376 10,000 -780 Descending New York Center
06:22AM 40.1642 -76.0511 120° Southeast 316 364 9,300 -960 Descending New York Center
06:23AM 40.1283 -75.9644 118° Southeast 291 335 8,100 -660 Descending New York Center
06:24AM 40.0928 -75.8722 117° Southeast 286 329 8,000 -60 Descending New York Center
06:25AM 40.0597 -75.7667 112° Southeast 275 316 8,000 -660 Level New York Center
06:26AM 39.9967 -75.7322 157° South 257 296 6,800 -1,020 Descending New York Center
06:27AM 39.9233 -75.6919 157° South 262 302 6,000 -480 Descending New York Center
06:28AM 39.8764 -75.6642 156° South 232 267 5,900 -960 Descending New York Center
06:29AM 39.8500 -75.6003 118° Southeast 181 208 4,100 -1,500 Descending New York Center
06:29AM 39.8333 -75.5667 123° Southeast 181 208 3,700 -780 Descending Philadelphia TRACON
06:30AM 39.8167 -75.5000 108° East 184 212 3,000 -600 Descending Philadelphia TRACON
06:31AM 39.8333 -75.4333 72° East 199 229 2,500 -720 Descending Philadelphia TRACON
06:32AM 39.8500 -75.3667 72° East 187 215 1,600 -900 Descending Philadelphia TRACON
06:33AM 39.8500 -75.3167 90° East 153 176 800 -900 Descending Philadelphia TRACON
06:35AM 39.8722 -75.2409 69° East  Level Estimated
06:42AM 39.8722 -75.2409 101° East  Level Estimated